sensor_id;sensor_type;location;lat;lon;timestamp;P1;durP1;ratioP1;P2;durP2;ratioP2
2041;SDS011;1026;51.460;7.252;2023-11-22T00:00:26;4.13;;;3.73;;
2041;SDS011;1026;51.460;7.252;2023-11-22T00:03:07;6.40;;;5.63;;
2041;SDS011;1026;51.460;7.252;2023-11-22T00:05:35;4.40;;;4.00;;
2041;SDS011;1026;51.460;7.252;2023-11-22T00:08:08;5.27;;;4.77;;
2041;SDS011;1026;51.460;7.252;2023-11-22T00:10:41;3.73;;;3.30;;
2041;SDS011;1026;51.460;7.252;2023-11-22T00:13:08;6.23;;;4.50;;
2041;SDS011;1026;51.460;7.252;2023-11-22T00:15:41;4.93;;;3.63;;
2041;SDS011;1026;51.460;7.252;2023-11-22T00:18:08;5.33;;;4.43;;
2041;SDS011;1026;51.460;7.252;2023-11-22T00:20:35;6.83;;;4.90;;
2041;SDS011;1026;51.460;7.252;2023-11-22T00:23:09;4.53;;;4.13;;
2041;SDS011;1026;51.460;7.252;2023-11-22T00:25:36;4.60;;;4.03;;
2041;SDS011;1026;51.460;7.252;2023-11-22T00:28:10;4.67;;;4.27;;
2041;SDS011;1026;51.460;7.252;2023-11-22T00:30:38;5.40;;;4.90;;
2041;SDS011;1026;51.460;7.252;2023-11-22T00:33:05;4.17;;;3.73;;
2041;SDS011;1026;51.460;7.252;2023-11-22T00:35:38;4.20;;;3.80;;
2041;SDS011;1026;51.460;7.252;2023-11-22T00:38:05;5.00;;;4.50;;
2041;SDS011;1026;51.460;7.252;2023-11-22T00:40:32;5.37;;;4.40;;
2041;SDS011;1026;51.460;7.252;2023-11-22T00:43:05;4.87;;;4.37;;
2041;SDS011;1026;51.460;7.252;2023-11-22T00:45:33;4.87;;;4.20;;
2041;SDS011;1026;51.460;7.252;2023-11-22T00:48:06;4.40;;;3.97;;
2041;SDS011;1026;51.460;7.252;2023-11-22T00:50:34;4.20;;;3.80;;
2041;SDS011;1026;51.460;7.252;2023-11-22T00:53:07;4.70;;;4.30;;
2041;SDS011;1026;51.460;7.252;2023-11-22T00:55:42;4.20;;;3.80;;
2041;SDS011;1026;51.460;7.252;2023-11-22T00:58:10;4.60;;;4.20;;
2041;SDS011;1026;51.460;7.252;2023-11-22T01:00:43;4.27;;;3.87;;
2041;SDS011;1026;51.460;7.252;2023-11-22T01:03:22;4.70;;;4.30;;
2041;SDS011;1026;51.460;7.252;2023-11-22T01:06:03;4.90;;;4.23;;
2041;SDS011;1026;51.460;7.252;2023-11-22T01:08:39;6.17;;;4.20;;
2041;SDS011;1026;51.460;7.252;2023-11-22T01:11:06;5.13;;;4.40;;
2041;SDS011;1026;51.460;7.252;2023-11-22T01:13:34;6.47;;;4.17;;
2041;SDS011;1026;51.460;7.252;2023-11-22T01:16:13;6.33;;;4.77;;
2041;SDS011;1026;51.460;7.252;2023-11-22T01:18:40;5.57;;;4.30;;
2041;SDS011;1026;51.460;7.252;2023-11-22T01:21:14;6.47;;;4.50;;
2041;SDS011;1026;51.460;7.252;2023-11-22T01:23:47;4.10;;;3.70;;
2041;SDS011;1026;51.460;7.252;2023-11-22T01:26:14;4.40;;;4.00;;
2041;SDS011;1026;51.460;7.252;2023-11-22T01:28:49;6.23;;;5.40;;
2041;SDS011;1026;51.460;7.252;2023-11-22T01:31:17;5.37;;;4.87;;
2041;SDS011;1026;51.460;7.252;2023-11-22T01:33:54;5.40;;;4.40;;
2041;SDS011;1026;51.460;7.252;2023-11-22T01:36:21;4.30;;;3.90;;
2041;SDS011;1026;51.460;7.252;2023-11-22T01:38:48;5.93;;;4.40;;
2041;SDS011;1026;51.460;7.252;2023-11-22T01:41:23;4.53;;;4.00;;
2041;SDS011;1026;51.460;7.252;2023-11-22T01:43:56;4.53;;;4.10;;
2041;SDS011;1026;51.460;7.252;2023-11-22T01:46:24;5.27;;;4.20;;
2041;SDS011;1026;51.460;7.252;2023-11-22T01:48:58;4.33;;;3.93;;
2041;SDS011;1026;51.460;7.252;2023-11-22T01:51:27;5.03;;;4.53;;
2041;SDS011;1026;51.460;7.252;2023-11-22T01:54:00;4.23;;;3.83;;
2041;SDS011;1026;51.460;7.252;2023-11-22T01:56:35;4.80;;;4.40;;
2041;SDS011;1026;51.460;7.252;2023-11-22T01:59:04;4.80;;;4.30;;
2041;SDS011;1026;51.460;7.252;2023-11-22T02:01:31;4.47;;;4.07;;
2041;SDS011;1026;51.460;7.252;2023-11-22T02:04:04;5.23;;;4.73;;
2041;SDS011;1026;51.460;7.252;2023-11-22T02:06:33;4.93;;;4.43;;
2041;SDS011;1026;51.460;7.252;2023-11-22T02:09:00;5.13;;;4.23;;
2041;SDS011;1026;51.460;7.252;2023-11-22T02:11:33;4.60;;;4.20;;
2041;SDS011;1026;51.460;7.252;2023-11-22T02:14:08;5.73;;;4.97;;
2041;SDS011;1026;51.460;7.252;2023-11-22T02:16:44;5.57;;;4.27;;
2041;SDS011;1026;51.460;7.252;2023-11-22T02:19:18;5.07;;;3.80;;
2041;SDS011;1026;51.460;7.252;2023-11-22T02:21:46;5.17;;;4.50;;
2041;SDS011;1026;51.460;7.252;2023-11-22T02:24:13;4.80;;;4.13;;
2041;SDS011;1026;51.460;7.252;2023-11-22T02:26:47;6.40;;;4.80;;
2041;SDS011;1026;51.460;7.252;2023-11-22T02:29:14;4.97;;;4.47;;
2041;SDS011;1026;51.460;7.252;2023-11-22T02:31:49;4.67;;;4.17;;
2041;SDS011;1026;51.460;7.252;2023-11-22T02:34:16;6.23;;;5.63;;
2041;SDS011;1026;51.460;7.252;2023-11-22T02:36:49;3.97;;;3.57;;
2041;SDS011;1026;51.460;7.252;2023-11-22T02:39:29;5.37;;;4.87;;
2041;SDS011;1026;51.460;7.252;2023-11-22T02:42:13;5.80;;;4.50;;
2041;SDS011;1026;51.460;7.252;2023-11-22T02:44:46;5.90;;;5.30;;
2041;SDS011;1026;51.460;7.252;2023-11-22T02:47:20;5.50;;;4.90;;
2041;SDS011;1026;51.460;7.252;2023-11-22T02:49:47;4.30;;;3.90;;
2041;SDS011;1026;51.460;7.252;2023-11-22T02:52:15;5.50;;;4.50;;
2041;SDS011;1026;51.460;7.252;2023-11-22T02:54:48;5.87;;;5.27;;
2041;SDS011;1026;51.460;7.252;2023-11-22T02:57:15;6.73;;;4.43;;
2041;SDS011;1026;51.460;7.252;2023-11-22T02:59:43;5.90;;;4.50;;
2041;SDS011;1026;51.460;7.252;2023-11-22T03:02:16;4.30;;;3.90;;
2041;SDS011;1026;51.460;7.252;2023-11-22T03:04:50;5.47;;;4.90;;
2041;SDS011;1026;51.460;7.252;2023-11-22T03:07:27;5.07;;;4.57;;
2041;SDS011;1026;51.460;7.252;2023-11-22T03:09:54;5.37;;;4.50;;
2041;SDS011;1026;51.460;7.252;2023-11-22T03:12:22;4.90;;;4.40;;
2041;SDS011;1026;51.460;7.252;2023-11-22T03:14:55;5.77;;;5.20;;
2041;SDS011;1026;51.460;7.252;2023-11-22T03:17:27;6.27;;;5.10;;
2041;SDS011;1026;51.460;7.252;2023-11-22T03:19:55;5.90;;;5.00;;
2041;SDS011;1026;51.460;7.252;2023-11-22T03:22:33;7.73;;;4.10;;
2041;SDS011;1026;51.460;7.252;2023-11-22T03:25:02;4.57;;;4.13;;
2041;SDS011;1026;51.460;7.252;2023-11-22T03:27:37;5.47;;;4.23;;
2041;SDS011;1026;51.460;7.252;2023-11-22T03:30:04;4.63;;;4.23;;
2041;SDS011;1026;51.460;7.252;2023-11-22T03:32:43;4.60;;;4.17;;
2041;SDS011;1026;51.460;7.252;2023-11-22T03:35:11;6.23;;;4.47;;
2041;SDS011;1026;51.460;7.252;2023-11-22T03:37:38;4.80;;;4.30;;
2041;SDS011;1026;51.460;7.252;2023-11-22T03:40:12;5.90;;;5.20;;
2041;SDS011;1026;51.460;7.252;2023-11-22T03:42:42;5.70;;;5.20;;
2041;SDS011;1026;51.460;7.252;2023-11-22T03:45:16;5.30;;;4.57;;
2041;SDS011;1026;51.460;7.252;2023-11-22T03:47:43;6.40;;;4.60;;
2041;SDS011;1026;51.460;7.252;2023-11-22T03:50:17;9.20;;;3.93;;
2041;SDS011;1026;51.460;7.252;2023-11-22T03:52:44;5.50;;;4.77;;
2041;SDS011;1026;51.460;7.252;2023-11-22T03:55:17;5.20;;;4.70;;
2041;SDS011;1026;51.460;7.252;2023-11-22T03:57:44;6.00;;;5.40;;
2041;SDS011;1026;51.460;7.252;2023-11-22T04:00:24;5.80;;;5.17;;
2041;SDS011;1026;51.460;7.252;2023-11-22T04:03:04;6.00;;;4.70;;
2041;SDS011;1026;51.460;7.252;2023-11-22T04:05:38;4.60;;;4.20;;
2041;SDS011;1026;51.460;7.252;2023-11-22T04:08:05;6.03;;;4.37;;
2041;SDS011;1026;51.460;7.252;2023-11-22T04:10:39;6.93;;;5.53;;
2041;SDS011;1026;51.460;7.252;2023-11-22T04:13:12;4.87;;;4.30;;
2041;SDS011;1026;51.460;7.252;2023-11-22T04:15:40;4.73;;;4.20;;
2041;SDS011;1026;51.460;7.252;2023-11-22T04:18:14;5.13;;;4.63;;
2041;SDS011;1026;51.460;7.252;2023-11-22T04:20:48;5.97;;;5.27;;
2041;SDS011;1026;51.460;7.252;2023-11-22T04:23:22;5.33;;;4.67;;
2041;SDS011;1026;51.460;7.252;2023-11-22T04:25:55;4.80;;;4.27;;
2041;SDS011;1026;51.460;7.252;2023-11-22T04:28:24;5.00;;;4.03;;
2041;SDS011;1026;51.460;7.252;2023-11-22T04:30:57;6.00;;;4.70;;
2041;SDS011;1026;51.460;7.252;2023-11-22T04:33:25;5.43;;;3.77;;
2041;SDS011;1026;51.460;7.252;2023-11-22T04:36:01;5.53;;;5.03;;
2041;SDS011;1026;51.460;7.252;2023-11-22T04:38:29;5.00;;;4.00;;
2041;SDS011;1026;51.460;7.252;2023-11-22T04:40:56;6.27;;;4.47;;
2041;SDS011;1026;51.460;7.252;2023-11-22T04:43:30;4.03;;;3.30;;
2041;SDS011;1026;51.460;7.252;2023-11-22T04:45:57;3.87;;;3.30;;
2041;SDS011;1026;51.460;7.252;2023-11-22T04:48:25;5.33;;;4.70;;
2041;SDS011;1026;51.460;7.252;2023-11-22T04:50:59;4.43;;;3.97;;
2041;SDS011;1026;51.460;7.252;2023-11-22T04:53:25;5.10;;;4.00;;
2041;SDS011;1026;51.460;7.252;2023-11-22T04:56:00;5.13;;;4.30;;
2041;SDS011;1026;51.460;7.252;2023-11-22T04:58:32;4.50;;;4.10;;
2041;SDS011;1026;51.460;7.252;2023-11-22T05:01:13;5.10;;;4.20;;
2041;SDS011;1026;51.460;7.252;2023-11-22T05:03:57;4.20;;;3.80;;
2041;SDS011;1026;51.460;7.252;2023-11-22T05:06:53;5.03;;;4.30;;
2041;SDS011;1026;51.460;7.252;2023-11-22T05:09:48;8.33;;;4.07;;
2041;SDS011;1026;51.460;7.252;2023-11-22T05:12:21;4.50;;;3.90;;
2041;SDS011;1026;51.460;7.252;2023-11-22T05:14:55;4.10;;;3.80;;
2041;SDS011;1026;51.460;7.252;2023-11-22T05:17:28;3.93;;;3.20;;
2041;SDS011;1026;51.460;7.252;2023-11-22T05:19:55;4.30;;;3.90;;
2041;SDS011;1026;51.460;7.252;2023-11-22T05:22:29;4.93;;;4.03;;
2041;SDS011;1026;51.460;7.252;2023-11-22T05:24:56;4.27;;;3.87;;
2041;SDS011;1026;51.460;7.252;2023-11-22T05:27:23;4.20;;;3.80;;
2041;SDS011;1026;51.460;7.252;2023-11-22T05:29:57;5.67;;;3.53;;
2041;SDS011;1026;51.460;7.252;2023-11-22T05:35:29;4.97;;;3.77;;
2041;SDS011;1026;51.460;7.252;2023-11-22T05:37:56;6.17;;;4.10;;
2041;SDS011;1026;51.460;7.252;2023-11-22T05:40:23;3.60;;;3.30;;
2041;SDS011;1026;51.460;7.252;2023-11-22T05:42:58;4.90;;;4.23;;
2041;SDS011;1026;51.460;7.252;2023-11-22T05:45:25;4.40;;;4.00;;
2041;SDS011;1026;51.460;7.252;2023-11-22T05:47:52;4.43;;;3.90;;
2041;SDS011;1026;51.460;7.252;2023-11-22T05:50:26;5.23;;;3.80;;
2041;SDS011;1026;51.460;7.252;2023-11-22T05:52:59;4.03;;;3.50;;
2041;SDS011;1026;51.460;7.252;2023-11-22T05:55:26;6.10;;;3.70;;
2041;SDS011;1026;51.460;7.252;2023-11-22T05:58:06;4.83;;;3.07;;
2041;SDS011;1026;51.460;7.252;2023-11-22T06:00:33;4.43;;;3.80;;
2041;SDS011;1026;51.460;7.252;2023-11-22T06:03:13;4.57;;;4.07;;
2041;SDS011;1026;51.460;7.252;2023-11-22T06:05:47;3.53;;;3.20;;
2041;SDS011;1026;51.460;7.252;2023-11-22T06:08:21;4.43;;;4.03;;
2041;SDS011;1026;51.460;7.252;2023-11-22T06:10:48;4.10;;;3.27;;
2041;SDS011;1026;51.460;7.252;2023-11-22T06:13:15;4.20;;;3.27;;
2041;SDS011;1026;51.460;7.252;2023-11-22T06:15:49;4.40;;;4.00;;
2041;SDS011;1026;51.460;7.252;2023-11-22T06:18:16;3.90;;;3.53;;
2041;SDS011;1026;51.460;7.252;2023-11-22T06:20:43;3.87;;;3.47;;
2041;SDS011;1026;51.460;7.252;2023-11-22T06:23:17;4.83;;;4.00;;
2041;SDS011;1026;51.460;7.252;2023-11-22T06:25:45;5.00;;;4.17;;
2041;SDS011;1026;51.460;7.252;2023-11-22T06:28:12;4.17;;;3.77;;
2041;SDS011;1026;51.460;7.252;2023-11-22T06:30:45;6.57;;;3.93;;
2041;SDS011;1026;51.460;7.252;2023-11-22T06:33:16;3.80;;;3.20;;
2041;SDS011;1026;51.460;7.252;2023-11-22T06:36:10;3.60;;;3.30;;
2041;SDS011;1026;51.460;7.252;2023-11-22T06:38:39;3.43;;;3.10;;
2041;SDS011;1026;51.460;7.252;2023-11-22T06:41:14;3.20;;;2.90;;
2041;SDS011;1026;51.460;7.252;2023-11-22T06:43:45;4.00;;;3.60;;
2041;SDS011;1026;51.460;7.252;2023-11-22T06:46:22;3.67;;;3.10;;
2041;SDS011;1026;51.460;7.252;2023-11-22T06:48:56;3.17;;;2.83;;
2041;SDS011;1026;51.460;7.252;2023-11-22T06:51:30;4.80;;;4.07;;
2041;SDS011;1026;51.460;7.252;2023-11-22T06:54:05;5.73;;;4.23;;
2041;SDS011;1026;51.460;7.252;2023-11-22T06:56:40;3.67;;;3.37;;
2041;SDS011;1026;51.460;7.252;2023-11-22T06:59:14;3.73;;;3.40;;
2041;SDS011;1026;51.460;7.252;2023-11-22T07:01:47;3.87;;;3.47;;
2041;SDS011;1026;51.460;7.252;2023-11-22T07:04:28;4.53;;;4.13;;
2041;SDS011;1026;51.460;7.252;2023-11-22T07:06:56;6.50;;;4.33;;
2041;SDS011;1026;51.460;7.252;2023-11-22T07:09:30;7.17;;;4.30;;
2041;SDS011;1026;51.460;7.252;2023-11-22T07:11:59;6.77;;;4.30;;
2041;SDS011;1026;51.460;7.252;2023-11-22T07:14:33;6.27;;;4.57;;
2041;SDS011;1026;51.460;7.252;2023-11-22T07:17:00;7.07;;;4.40;;
2041;SDS011;1026;51.460;7.252;2023-11-22T07:19:33;4.03;;;3.60;;
2041;SDS011;1026;51.460;7.252;2023-11-22T07:22:04;6.63;;;4.50;;
2041;SDS011;1026;51.460;7.252;2023-11-22T07:24:49;6.87;;;4.43;;
2041;SDS011;1026;51.460;7.252;2023-11-22T07:27:20;5.10;;;4.60;;
2041;SDS011;1026;51.460;7.252;2023-11-22T07:29:55;5.10;;;4.17;;
2041;SDS011;1026;51.460;7.252;2023-11-22T07:32:29;6.93;;;4.37;;
2041;SDS011;1026;51.460;7.252;2023-11-22T07:35:04;7.83;;;4.90;;
2041;SDS011;1026;51.460;7.252;2023-11-22T07:37:31;6.27;;;4.90;;
2041;SDS011;1026;51.460;7.252;2023-11-22T07:40:05;5.27;;;4.77;;
2041;SDS011;1026;51.460;7.252;2023-11-22T07:42:35;6.90;;;5.30;;
2041;SDS011;1026;51.460;7.252;2023-11-22T07:45:02;8.47;;;4.83;;
2041;SDS011;1026;51.460;7.252;2023-11-22T07:47:37;8.10;;;5.20;;
2041;SDS011;1026;51.460;7.252;2023-11-22T07:50:08;6.90;;;4.90;;
2041;SDS011;1026;51.460;7.252;2023-11-22T07:52:44;6.33;;;5.03;;
2041;SDS011;1026;51.460;7.252;2023-11-22T07:55:12;5.10;;;4.57;;
2041;SDS011;1026;51.460;7.252;2023-11-22T07:57:39;7.50;;;6.10;;
2041;SDS011;1026;51.460;7.252;2023-11-22T08:00:20;5.40;;;4.47;;
2041;SDS011;1026;51.460;7.252;2023-11-22T08:03:02;7.20;;;4.23;;
2041;SDS011;1026;51.460;7.252;2023-11-22T08:05:37;5.57;;;4.10;;
2041;SDS011;1026;51.460;7.252;2023-11-22T08:08:13;6.37;;;4.80;;
2041;SDS011;1026;51.460;7.252;2023-11-22T08:10:40;8.40;;;4.07;;
2041;SDS011;1026;51.460;7.252;2023-11-22T08:13:15;9.03;;;4.80;;
2041;SDS011;1026;51.460;7.252;2023-11-22T08:15:44;4.53;;;4.13;;
2041;SDS011;1026;51.460;7.252;2023-11-22T08:18:18;5.63;;;4.60;;
2041;SDS011;1026;51.460;7.252;2023-11-22T08:20:46;4.60;;;3.67;;
2041;SDS011;1026;51.460;7.252;2023-11-22T08:23:20;5.30;;;4.17;;
2041;SDS011;1026;51.460;7.252;2023-11-22T08:25:47;5.97;;;3.93;;
2041;SDS011;1026;51.460;7.252;2023-11-22T08:28:21;4.47;;;4.07;;
2041;SDS011;1026;51.460;7.252;2023-11-22T08:31:15;5.73;;;4.00;;
2041;SDS011;1026;51.460;7.252;2023-11-22T08:33:49;7.60;;;5.00;;
2041;SDS011;1026;51.460;7.252;2023-11-22T08:36:21;7.50;;;4.07;;
2041;SDS011;1026;51.460;7.252;2023-11-22T08:38:55;5.87;;;4.23;;
2041;SDS011;1026;51.460;7.252;2023-11-22T08:41:29;4.20;;;3.40;;
2041;SDS011;1026;51.460;7.252;2023-11-22T08:43:56;5.60;;;4.17;;
2041;SDS011;1026;51.460;7.252;2023-11-22T08:46:23;4.70;;;3.77;;
2041;SDS011;1026;51.460;7.252;2023-11-22T08:48:56;5.93;;;4.13;;
2041;SDS011;1026;51.460;7.252;2023-11-22T08:51:26;10.43;;;4.60;;
2041;SDS011;1026;51.460;7.252;2023-11-22T08:54:00;4.73;;;3.60;;
2041;SDS011;1026;51.460;7.252;2023-11-22T08:56:27;5.37;;;4.77;;
2041;SDS011;1026;51.460;7.252;2023-11-22T08:58:54;5.53;;;3.93;;
2041;SDS011;1026;51.460;7.252;2023-11-22T09:01:34;6.03;;;4.10;;
2041;SDS011;1026;51.460;7.252;2023-11-22T09:04:18;6.00;;;4.50;;
2041;SDS011;1026;51.460;7.252;2023-11-22T09:06:53;5.60;;;4.47;;
2041;SDS011;1026;51.460;7.252;2023-11-22T09:09:23;5.83;;;4.83;;
2041;SDS011;1026;51.460;7.252;2023-11-22T09:12:04;5.50;;;3.33;;
2041;SDS011;1026;51.460;7.252;2023-11-22T09:14:48;6.20;;;4.33;;
2041;SDS011;1026;51.460;7.252;2023-11-22T09:17:15;4.27;;;3.57;;
2041;SDS011;1026;51.460;7.252;2023-11-22T09:19:51;6.30;;;4.43;;
2041;SDS011;1026;51.460;7.252;2023-11-22T09:22:29;5.87;;;4.40;;
2041;SDS011;1026;51.460;7.252;2023-11-22T09:24:56;5.63;;;4.10;;
2041;SDS011;1026;51.460;7.252;2023-11-22T09:27:23;4.10;;;3.70;;
2041;SDS011;1026;51.460;7.252;2023-11-22T09:29:58;6.17;;;5.00;;
2041;SDS011;1026;51.460;7.252;2023-11-22T09:32:25;4.80;;;4.30;;
2041;SDS011;1026;51.460;7.252;2023-11-22T09:34:52;6.93;;;4.10;;
2041;SDS011;1026;51.460;7.252;2023-11-22T09:37:31;4.80;;;3.33;;
2041;SDS011;1026;51.460;7.252;2023-11-22T09:40:06;4.73;;;4.27;;
2041;SDS011;1026;51.460;7.252;2023-11-22T09:42:42;4.17;;;3.40;;
2041;SDS011;1026;51.460;7.252;2023-11-22T09:45:19;5.70;;;4.40;;
2041;SDS011;1026;51.460;7.252;2023-11-22T09:47:53;5.63;;;3.83;;
2041;SDS011;1026;51.460;7.252;2023-11-22T09:53:50;3.87;;;3.30;;
2041;SDS011;1026;51.460;7.252;2023-11-22T09:56:33;4.07;;;3.40;;
2041;SDS011;1026;51.460;7.252;2023-11-22T09:59:03;4.20;;;3.77;;
2041;SDS011;1026;51.460;7.252;2023-11-22T10:01:46;3.87;;;3.27;;
2041;SDS011;1026;51.460;7.252;2023-11-22T10:04:27;4.70;;;3.70;;
2041;SDS011;1026;51.460;7.252;2023-11-22T10:07:02;4.77;;;3.70;;
2041;SDS011;1026;51.460;7.252;2023-11-22T10:09:29;4.17;;;3.47;;
2041;SDS011;1026;51.460;7.252;2023-11-22T10:12:03;6.43;;;5.80;;
2041;SDS011;1026;51.460;7.252;2023-11-22T10:14:31;3.47;;;3.17;;
2041;SDS011;1026;51.460;7.252;2023-11-22T10:17:01;4.63;;;3.80;;
2041;SDS011;1026;51.460;7.252;2023-11-22T10:19:34;3.37;;;2.80;;
2041;SDS011;1026;51.460;7.252;2023-11-22T10:22:07;4.20;;;3.43;;
2041;SDS011;1026;51.460;7.252;2023-11-22T10:24:42;4.93;;;2.70;;
2041;SDS011;1026;51.460;7.252;2023-11-22T10:27:10;5.60;;;3.30;;
2041;SDS011;1026;51.460;7.252;2023-11-22T10:29:37;3.60;;;2.53;;
2041;SDS011;1026;51.460;7.252;2023-11-22T10:32:11;4.77;;;3.60;;
2041;SDS011;1026;51.460;7.252;2023-11-22T10:34:38;4.50;;;3.70;;
2041;SDS011;1026;51.460;7.252;2023-11-22T10:37:15;4.07;;;3.13;;
2041;SDS011;1026;51.460;7.252;2023-11-22T10:39:43;4.77;;;3.53;;
2041;SDS011;1026;51.460;7.252;2023-11-22T10:42:24;3.33;;;2.30;;
2041;SDS011;1026;51.460;7.252;2023-11-22T10:44:56;3.70;;;3.30;;
2041;SDS011;1026;51.460;7.252;2023-11-22T10:47:32;3.07;;;2.60;;
2041;SDS011;1026;51.460;7.252;2023-11-22T10:50:05;5.00;;;4.50;;
2041;SDS011;1026;51.460;7.252;2023-11-22T10:52:46;2.83;;;2.50;;
2041;SDS011;1026;51.460;7.252;2023-11-22T10:55:26;3.23;;;2.93;;
2041;SDS011;1026;51.460;7.252;2023-11-22T10:57:54;3.90;;;2.73;;
2041;SDS011;1026;51.460;7.252;2023-11-22T11:00:32;3.20;;;2.90;;
2041;SDS011;1026;51.460;7.252;2023-11-22T11:03:14;4.60;;;2.90;;
2041;SDS011;1026;51.460;7.252;2023-11-22T11:05:59;2.80;;;2.40;;
2041;SDS011;1026;51.460;7.252;2023-11-22T11:08:31;4.50;;;3.03;;
2041;SDS011;1026;51.460;7.252;2023-11-22T11:11:06;3.70;;;3.00;;
2041;SDS011;1026;51.460;7.252;2023-11-22T11:13:33;5.20;;;2.90;;
2041;SDS011;1026;51.460;7.252;2023-11-22T11:16:10;3.00;;;2.70;;
2041;SDS011;1026;51.460;7.252;2023-11-22T11:18:45;2.70;;;2.50;;
2041;SDS011;1026;51.460;7.252;2023-11-22T11:21:12;2.87;;;2.60;;
2041;SDS011;1026;51.460;7.252;2023-11-22T11:23:42;4.23;;;3.30;;
2041;SDS011;1026;51.460;7.252;2023-11-22T11:26:20;2.90;;;2.60;;
2041;SDS011;1026;51.460;7.252;2023-11-22T11:28:57;2.93;;;2.63;;
2041;SDS011;1026;51.460;7.252;2023-11-22T11:31:24;3.00;;;2.73;;
2041;SDS011;1026;51.460;7.252;2023-11-22T11:34:05;3.23;;;2.60;;
2041;SDS011;1026;51.460;7.252;2023-11-22T11:36:32;4.80;;;3.13;;
2041;SDS011;1026;51.460;7.252;2023-11-22T11:39:01;3.90;;;3.47;;
2041;SDS011;1026;51.460;7.252;2023-11-22T11:41:37;3.23;;;2.93;;
2041;SDS011;1026;51.460;7.252;2023-11-22T11:44:08;3.53;;;3.03;;
2041;SDS011;1026;51.460;7.252;2023-11-22T11:46:43;4.30;;;3.00;;
2041;SDS011;1026;51.460;7.252;2023-11-22T11:49:12;3.63;;;2.80;;
2041;SDS011;1026;51.460;7.252;2023-11-22T11:51:50;3.10;;;2.47;;
2041;SDS011;1026;51.460;7.252;2023-11-22T11:54:17;3.90;;;2.90;;
2041;SDS011;1026;51.460;7.252;2023-11-22T11:56:44;5.73;;;2.87;;
2041;SDS011;1026;51.460;7.252;2023-11-22T11:59:19;3.00;;;2.30;;
2041;SDS011;1026;51.460;7.252;2023-11-22T12:01:46;3.60;;;3.00;;
2041;SDS011;1026;51.460;7.252;2023-11-22T12:07:39;2.97;;;2.27;;
2041;SDS011;1026;51.460;7.252;2023-11-22T12:10:46;3.17;;;2.30;;
2041;SDS011;1026;51.460;7.252;2023-11-22T12:13:20;3.20;;;2.90;;
2041;SDS011;1026;51.460;7.252;2023-11-22T12:15:57;2.73;;;2.53;;
2041;SDS011;1026;51.460;7.252;2023-11-22T12:18:25;2.80;;;2.60;;
2041;SDS011;1026;51.460;7.252;2023-11-22T12:21:01;2.73;;;2.27;;
2041;SDS011;1026;51.460;7.252;2023-11-22T12:23:34;1.87;;;1.77;;
2041;SDS011;1026;51.460;7.252;2023-11-22T12:26:01;5.33;;;3.50;;
2041;SDS011;1026;51.460;7.252;2023-11-22T12:28:36;2.87;;;2.57;;
2041;SDS011;1026;51.460;7.252;2023-11-22T12:31:09;3.87;;;2.50;;
2041;SDS011;1026;51.460;7.252;2023-11-22T12:33:44;2.67;;;2.47;;
2041;SDS011;1026;51.460;7.252;2023-11-22T12:36:19;3.73;;;2.60;;
2041;SDS011;1026;51.460;7.252;2023-11-22T12:38:46;2.50;;;2.30;;
2041;SDS011;1026;51.460;7.252;2023-11-22T12:41:14;2.60;;;2.40;;
2041;SDS011;1026;51.460;7.252;2023-11-22T12:44:01;3.00;;;2.53;;
2041;SDS011;1026;51.460;7.252;2023-11-22T12:46:44;2.33;;;2.10;;
2041;SDS011;1026;51.460;7.252;2023-11-22T12:49:44;2.57;;;2.37;;
2041;SDS011;1026;51.460;7.252;2023-11-22T12:52:25;2.60;;;2.13;;
2041;SDS011;1026;51.460;7.252;2023-11-22T12:54:53;3.10;;;2.70;;
2041;SDS011;1026;51.460;7.252;2023-11-22T12:57:28;2.57;;;2.37;;
2041;SDS011;1026;51.460;7.252;2023-11-22T13:00:22;2.93;;;2.57;;
2041;SDS011;1026;51.460;7.252;2023-11-22T13:02:49;3.70;;;2.90;;
2041;SDS011;1026;51.460;7.252;2023-11-22T13:05:40;6.90;;;2.50;;
2041;SDS011;1026;51.460;7.252;2023-11-22T13:08:38;2.50;;;2.30;;
2041;SDS011;1026;51.460;7.252;2023-11-22T13:11:06;2.87;;;2.53;;
2041;SDS011;1026;51.460;7.252;2023-11-22T13:13:40;2.70;;;2.10;;
2041;SDS011;1026;51.460;7.252;2023-11-22T13:16:13;3.30;;;2.10;;
2041;SDS011;1026;51.460;7.252;2023-11-22T13:18:49;2.37;;;2.17;;
2041;SDS011;1026;51.460;7.252;2023-11-22T13:21:16;3.83;;;2.83;;
2041;SDS011;1026;51.460;7.252;2023-11-22T13:23:46;2.37;;;1.97;;
2041;SDS011;1026;51.460;7.252;2023-11-22T13:26:20;3.97;;;2.83;;
2041;SDS011;1026;51.460;7.252;2023-11-22T13:28:47;3.03;;;2.70;;
2041;SDS011;1026;51.460;7.252;2023-11-22T13:31:21;1.83;;;1.73;;
2041;SDS011;1026;51.460;7.252;2023-11-22T13:33:53;3.93;;;2.30;;
2041;SDS011;1026;51.460;7.252;2023-11-22T13:36:21;2.40;;;2.20;;
2041;SDS011;1026;51.460;7.252;2023-11-22T13:38:54;2.17;;;1.97;;
2041;SDS011;1026;51.460;7.252;2023-11-22T13:41:22;3.30;;;2.97;;
2041;SDS011;1026;51.460;7.252;2023-11-22T13:43:52;2.37;;;2.17;;
2041;SDS011;1026;51.460;7.252;2023-11-22T13:46:25;2.00;;;1.87;;
2041;SDS011;1026;51.460;7.252;2023-11-22T13:48:59;3.53;;;3.00;;
2041;SDS011;1026;51.460;7.252;2023-11-22T13:51:26;3.00;;;2.37;;
2041;SDS011;1026;51.460;7.252;2023-11-22T13:53:59;2.03;;;1.80;;
2041;SDS011;1026;51.460;7.252;2023-11-22T13:56:26;2.30;;;2.10;;
2041;SDS011;1026;51.460;7.252;2023-11-22T13:58:53;2.23;;;1.87;;
2041;SDS011;1026;51.460;7.252;2023-11-22T14:01:26;2.53;;;2.20;;
2041;SDS011;1026;51.460;7.252;2023-11-22T14:04:06;2.33;;;2.13;;
2041;SDS011;1026;51.460;7.252;2023-11-22T14:06:39;2.07;;;1.93;;
2041;SDS011;1026;51.460;7.252;2023-11-22T14:09:06;2.83;;;2.23;;
2041;SDS011;1026;51.460;7.252;2023-11-22T14:11:35;4.63;;;3.10;;
2041;SDS011;1026;51.460;7.252;2023-11-22T14:14:10;2.80;;;2.07;;
2041;SDS011;1026;51.460;7.252;2023-11-22T14:16:40;2.63;;;2.20;;
2041;SDS011;1026;51.460;7.252;2023-11-22T14:19:17;2.93;;;1.70;;
2041;SDS011;1026;51.460;7.252;2023-11-22T14:21:45;5.67;;;2.73;;
2041;SDS011;1026;51.460;7.252;2023-11-22T14:24:18;2.20;;;1.60;;
2041;SDS011;1026;51.460;7.252;2023-11-22T14:26:45;3.23;;;2.37;;
2041;SDS011;1026;51.460;7.252;2023-11-22T14:29:17;2.47;;;2.00;;
2041;SDS011;1026;51.460;7.252;2023-11-22T14:31:51;2.53;;;2.33;;
2041;SDS011;1026;51.460;7.252;2023-11-22T14:34:18;2.90;;;2.00;;
2041;SDS011;1026;51.460;7.252;2023-11-22T14:36:51;3.80;;;2.20;;
2041;SDS011;1026;51.460;7.252;2023-11-22T14:39:18;4.93;;;2.17;;
2041;SDS011;1026;51.460;7.252;2023-11-22T14:41:47;2.73;;;2.03;;
2041;SDS011;1026;51.460;7.252;2023-11-22T14:44:20;2.13;;;1.83;;
2041;SDS011;1026;51.460;7.252;2023-11-22T14:46:47;2.30;;;2.10;;
2041;SDS011;1026;51.460;7.252;2023-11-22T14:49:42;2.20;;;1.80;;
2041;SDS011;1026;51.460;7.252;2023-11-22T14:52:18;2.83;;;2.17;;
2041;SDS011;1026;51.460;7.252;2023-11-22T14:54:54;1.87;;;1.50;;
2041;SDS011;1026;51.460;7.252;2023-11-22T14:57:28;1.50;;;1.40;;
2041;SDS011;1026;51.460;7.252;2023-11-22T14:59:55;2.70;;;2.20;;
2041;SDS011;1026;51.460;7.252;2023-11-22T15:02:23;1.97;;;1.50;;
2041;SDS011;1026;51.460;7.252;2023-11-22T15:04:56;1.83;;;1.63;;
2041;SDS011;1026;51.460;7.252;2023-11-22T15:07:44;5.20;;;2.60;;
2041;SDS011;1026;51.460;7.252;2023-11-22T15:10:10;2.70;;;2.03;;
2041;SDS011;1026;51.460;7.252;2023-11-22T15:12:44;2.77;;;2.50;;
2041;SDS011;1026;51.460;7.252;2023-11-22T15:15:12;2.30;;;2.10;;
2041;SDS011;1026;51.460;7.252;2023-11-22T15:17:40;3.33;;;2.20;;
2041;SDS011;1026;51.460;7.252;2023-11-22T15:20:13;3.40;;;2.20;;
2041;SDS011;1026;51.460;7.252;2023-11-22T15:22:42;3.23;;;2.20;;
2041;SDS011;1026;51.460;7.252;2023-11-22T15:25:16;3.47;;;2.10;;
2041;SDS011;1026;51.460;7.252;2023-11-22T15:27:44;2.07;;;1.87;;
2041;SDS011;1026;51.460;7.252;2023-11-22T15:30:38;4.50;;;1.93;;
2041;SDS011;1026;51.460;7.252;2023-11-22T15:33:14;2.70;;;1.80;;
2041;SDS011;1026;51.460;7.252;2023-11-22T15:35:48;2.07;;;1.87;;
2041;SDS011;1026;51.460;7.252;2023-11-22T15:38:15;1.77;;;1.67;;
2041;SDS011;1026;51.460;7.252;2023-11-22T15:44:12;2.63;;;1.70;;
2041;SDS011;1026;51.460;7.252;2023-11-22T15:46:45;2.93;;;2.03;;
2041;SDS011;1026;51.460;7.252;2023-11-22T15:49:12;2.77;;;2.40;;
2041;SDS011;1026;51.460;7.252;2023-11-22T15:51:39;2.97;;;1.83;;
2041;SDS011;1026;51.460;7.252;2023-11-22T15:54:13;2.37;;;2.10;;
2041;SDS011;1026;51.460;7.252;2023-11-22T15:56:46;1.60;;;1.50;;
2041;SDS011;1026;51.460;7.252;2023-11-22T15:59:19;2.80;;;2.03;;
2041;SDS011;1026;51.460;7.252;2023-11-22T16:01:46;1.97;;;1.77;;